Time;durP1;ratioP1;P1;durP2;ratioP2;P2;SDS_P1;SDS_P2;PMS_P1;PMS_P2;Temp;Humidity;BMP_temperature;BMP_pressure;BME280_temperature;BME280_humidity;BME280_pressure;Samples;Min_cycle;Max_cycle;Signal;HPM_P1;HPM_P2
2022/04/18 00:01:39;;;;;;;24.58;22.83;;;6.20;99.90;;;;;;4984296;28;20046;-75
2022/04/18 00:04:06;;;;;;;24.92;23.13;;;6.20;99.90;;;;;;4975372;28;20690;-75
2022/04/18 00:06:35;;;;;;;24.58;22.77;;;6.00;99.90;;;;;;4964081;28;20073;-75
2022/04/18 00:09:03;;;;;;;26.23;24.10;;;5.80;99.90;;;;;;4968936;28;20526;-75
2022/04/18 00:11:30;;;;;;;25.92;23.85;;;5.60;99.90;;;;;;4968713;28;20475;-74
2022/04/18 00:13:57;;;;;;;25.20;23.20;;;5.30;99.90;;;;;;4967502;28;20085;-75
2022/04/18 00:16:24;;;;;;;26.42;24.33;;;5.00;99.90;;;;;;4968618;28;20074;-75
2022/04/18 00:18:52;;;;;;;27.05;24.63;;;4.90;99.90;;;;;;4968496;28;20054;-74
2022/04/18 00:21:19;;;;;;;27.13;24.70;;;4.80;99.90;;;;;;4977940;28;20046;-75
2022/04/18 00:23:46;;;;;;;25.85;23.83;;;4.70;99.90;;;;;;4984996;28;20651;-75
2022/04/18 00:26:13;;;;;;;26.10;24.10;;;4.70;99.90;;;;;;4983003;28;20054;-75
2022/04/18 00:28:41;;;;;;;26.23;23.95;;;4.70;99.90;;;;;;4966630;28;20148;-75
2022/04/18 00:31:08;;;;;;;25.50;23.52;;;4.80;99.90;;;;;;4984492;28;20421;-75
2022/04/18 00:33:34;;;;;;;26.50;24.05;;;4.70;99.90;;;;;;4985919;28;20081;-75
2022/04/18 00:36:01;;;;;;;25.02;23.20;;;4.70;99.90;;;;;;4952160;28;20048;-75
2022/04/18 00:38:28;;;;;;;25.65;23.48;;;4.70;99.90;;;;;;4966463;28;20441;-75
2022/04/18 00:40:56;;;;;;;24.70;22.83;;;4.70;99.90;;;;;;4956029;28;20712;-75
2022/04/18 00:43:41;;;;;;;25.58;23.58;;;4.80;99.90;;;;;;4986131;28;20054;-74
2022/04/18 00:46:08;;;;;;;25.30;23.20;;;4.80;99.90;;;;;;4983977;28;20120;-74
2022/04/18 00:48:36;;;;;;;24.88;22.88;;;4.70;99.90;;;;;;4984921;28;20060;-75
2022/04/18 00:51:04;;;;;;;24.40;22.60;;;4.60;99.90;;;;;;4986662;28;20046;-74
2022/04/18 00:53:32;;;;;;;25.10;23.23;;;4.70;99.90;;;;;;4971729;28;20046;-75
2022/04/18 00:55:59;;;;;;;25.67;23.77;;;4.60;99.90;;;;;;4981257;28;20614;-75
2022/04/18 00:58:26;;;;;;;26.08;23.83;;;4.60;99.90;;;;;;4983342;28;20425;-75
2022/04/18 01:00:53;;;;;;;24.20;22.55;;;4.50;99.90;;;;;;4982440;28;20097;-75
2022/04/18 01:03:20;;;;;;;24.67;22.80;;;4.50;99.90;;;;;;4963507;28;20701;-75
2022/04/18 01:05:48;;;;;;;24.45;22.55;;;4.50;99.90;;;;;;4965494;28;20126;-75
2022/04/18 01:08:15;;;;;;;24.17;22.38;;;4.50;99.90;;;;;;4967563;28;20058;-75
2022/04/18 01:10:46;;;;;;;23.88;22.13;;;4.60;99.90;;;;;;4950454;28;20061;-75
2022/04/18 01:13:13;;;;;;;24.02;22.20;;;4.80;99.90;;;;;;4967502;28;20059;-74
2022/04/18 01:15:57;;;;;;;24.23;22.50;;;5.00;99.90;;;;;;4952670;28;20105;-74
2022/04/18 01:18:40;;;;;;;22.55;20.95;;;5.00;99.90;;;;;;4966741;28;20061;-75
2022/04/18 01:21:29;;;;;;;22.92;21.23;;;5.20;99.90;;;;;;4952987;28;20047;-74
2022/04/18 01:28:58;;;;;;;22.35;20.80;;;5.30;99.90;;;;;;4984155;28;20840;-74
2022/04/18 01:29:44;;;;;;;24.08;22.10;;;5.60;99.90;;;;;;4972465;28;20054;-75
2022/04/18 01:32:11;;;;;;;23.98;22.38;;;5.50;99.90;;;;;;4965324;28;20046;-75
2022/04/18 01:34:38;;;;;;;26.40;23.75;;;5.30;99.90;;;;;;4966967;28;20058;-75
2022/04/18 01:37:04;;;;;;;25.08;23.17;;;5.20;99.90;;;;;;4965877;28;20504;-75
2022/04/18 01:39:31;;;;;;;24.73;22.75;;;4.90;99.90;;;;;;4950603;28;20053;-75
2022/04/18 01:41:58;;;;;;;25.80;23.88;;;4.60;99.90;;;;;;4966508;28;20130;-75
2022/04/18 01:44:27;;;;;;;23.70;21.83;;;4.50;99.90;;;;;;4967560;28;20508;-75
2022/04/18 01:46:53;;;;;;;22.83;21.17;;;4.60;99.90;;;;;;4970306;28;20049;-75
2022/04/18 01:49:23;;;;;;;23.40;21.48;;;4.90;99.90;;;;;;4985733;28;20053;-76
2022/04/18 01:51:49;;;;;;;24.10;22.23;;;5.00;99.90;;;;;;4968626;28;20080;-75
2022/04/18 01:54:17;;;;;;;22.98;21.35;;;5.30;99.90;;;;;;4986207;28;20048;-74
2022/04/18 01:56:44;;;;;;;22.67;20.85;;;5.40;99.90;;;;;;4982318;28;20377;-75
2022/04/18 01:59:11;;;;;;;23.13;21.30;;;5.50;99.90;;;;;;4980843;28;20463;-75
2022/04/18 02:01:38;;;;;;;22.58;21.08;;;5.70;99.90;;;;;;4964748;28;20050;-75
2022/04/18 02:04:05;;;;;;;24.55;22.67;;;5.70;99.90;;;;;;4971434;28;20042;-75
2022/04/18 02:06:32;;;;;;;22.42;20.92;;;5.80;99.90;;;;;;4949760;28;20046;-74
2022/04/18 02:09:00;;;;;;;22.52;20.88;;;5.90;99.90;;;;;;4950369;28;20050;-75
2022/04/18 02:11:27;;;;;;;22.90;21.17;;;6.00;99.90;;;;;;4965528;28;20066;-75
2022/04/18 02:13:57;;;;;;;21.40;19.90;;;6.10;99.90;;;;;;4951142;28;20570;-75
2022/04/18 02:16:23;;;;;;;22.52;20.92;;;6.20;99.90;;;;;;4950217;28;20590;-75
2022/04/18 02:18:53;;;;;;;22.13;20.55;;;6.20;99.90;;;;;;4965876;28;20038;-75
2022/04/18 02:21:19;;;;;;;23.67;21.75;;;6.30;99.90;;;;;;4949562;28;20416;-75
2022/04/18 02:23:46;;;;;;;23.38;21.58;;;6.20;99.90;;;;;;4965562;28;20125;-75
2022/04/18 02:26:14;;;;;;;24.85;22.67;;;6.20;99.90;;;;;;4951639;28;20115;-75
2022/04/18 02:28:43;;;;;;;25.40;23.35;;;6.00;99.90;;;;;;4982978;28;20065;-75
2022/04/18 02:31:12;;;;;;;25.17;23.17;;;5.70;99.90;;;;;;4969274;28;20501;-76
2022/04/18 02:33:39;;;;;;;24.70;22.90;;;5.30;99.90;;;;;;4964576;28;20105;-76
2022/04/18 02:36:06;;;;;;;25.60;23.70;;;5.20;99.90;;;;;;4953592;28;20660;-74
2022/04/18 02:38:33;;;;;;;26.17;24.27;;;4.80;99.90;;;;;;4969755;28;20634;-74
2022/04/18 02:41:00;;;;;;;28.23;25.88;;;4.50;99.90;;;;;;4953336;28;20063;-74
2022/04/18 02:43:27;;;;;;;28.30;26.00;;;4.30;99.90;;;;;;4953909;28;20530;-75
2022/04/18 02:46:00;;;;;;;28.90;26.30;;;4.10;99.90;;;;;;4969881;28;20100;-75
2022/04/18 02:48:44;;;;;;;27.20;25.27;;;4.00;99.90;;;;;;4987672;28;20046;-75
2022/04/18 02:51:13;;;;;;;27.38;25.08;;;4.00;99.90;;;;;;4984508;28;20070;-75
2022/04/18 02:53:41;;;;;;;28.92;26.35;;;3.80;99.90;;;;;;4984451;28;20325;-74
2022/04/18 02:56:08;;;;;;;33.63;30.13;;;3.90;99.90;;;;;;4965802;28;20535;-74
2022/04/18 02:58:39;;;;;;;31.30;28.42;;;3.90;99.90;;;;;;4984796;28;20654;-77
2022/04/18 03:01:06;;;;;;;35.58;29.58;;;3.80;99.90;;;;;;4984040;28;20162;-77
2022/04/18 03:03:32;;;;;;;28.67;26.27;;;3.70;99.90;;;;;;4962084;28;20083;-76
2022/04/18 03:06:01;;;;;;;29.38;26.50;;;3.70;99.90;;;;;;4968248;28;20657;-76
2022/04/18 03:08:28;;;;;;;30.05;27.45;;;3.60;99.90;;;;;;4952294;28;20049;-76
2022/04/18 03:11:05;;;;;;;28.02;25.67;;;3.60;99.90;;;;;;4967547;28;20062;-76
2022/04/18 03:13:36;;;;;;;27.23;24.98;;;3.60;99.90;;;;;;4986440;28;20197;-76
2022/04/18 03:16:08;;;;;;;26.75;24.45;;;3.50;99.90;;;;;;4967692;28;20042;-76
2022/04/18 03:18:35;;;;;;;27.73;25.48;;;3.50;99.90;;;;;;4952746;28;20066;-77
2022/04/18 03:21:03;;;;;;;27.73;25.17;;;3.40;99.90;;;;;;4966782;28;20055;-77
2022/04/18 03:23:31;;;;;;;26.83;24.75;;;3.40;99.90;;;;;;4952097;28;20058;-76
2022/04/18 03:26:04;;;;;;;27.40;24.88;;;3.40;99.90;;;;;;4983364;28;20050;-77
2022/04/18 03:28:50;;;;;;;26.90;24.25;;;3.30;99.90;;;;;;4981223;28;20058;-76
2022/04/18 03:31:17;;;;;;;26.45;24.25;;;3.20;99.90;;;;;;4955026;28;20051;-77
2022/04/18 03:33:44;;;;;;;27.17;25.08;;;3.20;99.90;;;;;;4968287;28;20124;-76
2022/04/18 03:41:45;;;;;;;28.15;25.67;;;3.00;99.90;;;;;;4966694;28;19980;-76
2022/04/18 03:44:12;;;;;;;27.85;25.38;;;3.00;99.90;;;;;;4968302;28;20042;-76
2022/04/18 03:46:39;;;;;;;26.25;24.15;;;3.00;99.90;;;;;;4967525;28;20070;-77
2022/04/18 03:49:06;;;;;;;25.85;23.73;;;2.80;99.90;;;;;;4967513;28;20057;-77
2022/04/18 03:51:36;;;;;;;26.83;24.52;;;2.90;99.90;;;;;;4964394;28;132584;-76
2022/04/18 03:54:03;;;;;;;25.33;23.23;;;2.80;99.90;;;;;;4983339;28;20302;-76
2022/04/18 03:56:33;;;;;;;25.85;23.65;;;2.80;99.90;;;;;;4980286;28;20431;-76
2022/04/18 03:59:22;;;;;;;25.13;23.02;;;2.80;99.90;;;;;;4976573;28;20141;-77
2022/04/18 04:01:58;;;;;;;25.15;23.02;;;2.90;99.90;;;;;;4982534;28;20053;-76
2022/04/18 04:04:27;;;;;;;27.23;24.67;;;2.90;99.90;;;;;;4970020;28;20177;-76
2022/04/18 04:06:58;;;;;;;32.17;28.25;;;2.90;99.90;;;;;;4966230;28;20392;-76
2022/04/18 04:09:25;;;;;;;37.67;30.75;;;2.80;99.90;;;;;;4950964;28;20050;-76
2022/04/18 04:11:52;;;;;;;31.58;28.17;;;2.60;99.90;;;;;;4950729;28;20046;-76
2022/04/18 04:14:20;;;;;;;30.38;27.15;;;2.60;99.90;;;;;;4966754;28;20062;-76
2022/04/18 04:16:48;;;;;;;32.90;28.13;;;2.60;99.90;;;;;;4965548;28;20038;-76
2022/04/18 04:19:15;;;;;;;30.17;27.10;;;2.50;99.90;;;;;;4967124;28;20072;-77
2022/04/18 04:21:41;;;;;;;28.75;26.13;;;2.40;99.90;;;;;;4965997;28;20074;-76
2022/04/18 04:24:09;;;;;;;29.80;26.75;;;2.40;99.90;;;;;;4966550;28;20053;-77
2022/04/18 04:26:44;;;;;;;29.25;26.20;;;2.40;99.90;;;;;;4957166;28;20054;-77
2022/04/18 04:29:17;;;;;;;29.30;26.17;;;2.40;99.90;;;;;;4967234;28;20054;-76
2022/04/18 04:32:10;;;;;;;34.47;27.33;;;2.40;99.90;;;;;;4962682;28;20034;-77
2022/04/18 04:34:41;;;;;;;28.35;25.60;;;2.30;99.90;;;;;;4951869;28;20046;-76
2022/04/18 04:37:20;;;;;;;31.63;28.50;;;2.40;99.90;;;;;;4951879;28;20037;-76
2022/04/18 04:39:52;;;;;;;28.92;26.27;;;2.50;99.90;;;;;;4952424;28;20044;-77
2022/04/18 04:42:19;;;;;;;28.60;26.15;;;2.50;99.90;;;;;;4951832;28;20046;-76
2022/04/18 04:44:46;;;;;;;30.08;27.40;;;2.50;99.90;;;;;;4968279;28;20102;-76
2022/04/18 04:47:20;;;;;;;30.27;27.50;;;2.60;99.90;;;;;;4967893;28;20054;-77
2022/04/18 04:49:46;;;;;;;33.35;27.13;;;2.50;99.90;;;;;;4966106;28;20452;-76
2022/04/18 04:52:22;;;;;;;29.35;26.92;;;2.60;99.90;;;;;;4958005;28;20054;-76
2022/04/18 04:54:50;;;;;;;30.80;28.10;;;2.60;99.90;;;;;;4967329;28;20039;-77
2022/04/18 04:57:23;;;;;;;29.83;27.05;;;2.60;99.90;;;;;;4977424;28;20042;-76
2022/04/18 05:00:09;;;;;;;28.17;25.92;;;2.60;99.90;;;;;;4983856;28;20105;-77
2022/04/18 05:02:57;;;;;;;27.90;25.60;;;2.60;99.90;;;;;;4984746;28;20139;-77
2022/04/18 05:05:25;;;;;;;27.77;25.48;;;2.70;99.90;;;;;;4967315;28;20101;-76
2022/04/18 05:07:51;;;;;;;28.45;26.13;;;2.70;99.90;;;;;;4967534;28;20050;-76
2022/04/18 05:10:20;;;;;;;28.27;25.98;;;2.80;99.90;;;;;;4951507;28;20599;-77
2022/04/18 05:12:48;;;;;;;26.88;24.77;;;2.90;99.90;;;;;;4967032;28;20583;-76
2022/04/18 05:15:15;;;;;;;27.42;25.23;;;2.90;99.90;;;;;;4968082;28;20495;-77
2022/04/18 05:18:01;;;;;;;28.00;25.77;;;3.00;99.90;;;;;;4970861;28;20424;-76
2022/04/18 05:20:29;;;;;;;30.85;28.45;;;3.10;99.90;;;;;;4946594;28;20538;-77
2022/04/18 05:22:56;;;;;;;28.95;26.67;;;3.10;99.90;;;;;;4952075;28;20166;-77
2022/04/18 05:25:24;;;;;;;27.15;25.08;;;3.10;99.90;;;;;;4965950;28;20153;-76
2022/04/18 05:27:51;;;;;;;28.95;26.50;;;3.10;99.90;;;;;;4963291;28;20082;-77
2022/04/18 05:30:29;;;;;;;27.25;25.15;;;3.20;99.90;;;;;;4966704;28;20057;-76
2022/04/18 05:32:57;;;;;;;28.42;26.17;;;3.20;99.90;;;;;;4966024;28;20117;-76
2022/04/18 05:35:24;;;;;;;28.08;25.88;;;3.30;99.90;;;;;;4950267;28;20047;-77
2022/04/18 05:37:51;;;;;;;27.65;25.60;;;3.50;99.90;;;;;;4966357;28;20035;-76
2022/04/18 05:40:27;;;;;;;28.33;26.23;;;3.60;99.90;;;;;;4951028;28;20166;-77
2022/04/18 05:42:55;;;;;;;27.45;25.08;;;3.70;99.90;;;;;;4949954;28;20073;-76
2022/04/18 05:45:23;;;;;;;26.70;24.70;;;3.80;99.90;;;;;;4950553;28;20058;-76
2022/04/18 05:48:00;;;;;;;26.77;24.70;;;4.00;99.90;;;;;;4966391;28;20057;-77
2022/04/18 05:50:32;;;;;;;26.38;24.48;;;4.10;99.90;;;;;;4964902;28;20431;-76
2022/04/18 05:53:37;;;;;;;27.67;25.52;;;4.20;99.90;;;;;;4980560;28;20494;-77
2022/04/18 05:56:04;;;;;;;26.63;24.67;;;4.40;99.90;;;;;;4981340;28;20516;-77
2022/04/18 05:58:54;;;;;;;26.77;24.65;;;4.60;99.90;;;;;;4981745;28;20671;-77
2022/04/18 06:01:44;;;;;;;29.83;27.63;;;4.80;99.90;;;;;;4982106;28;20078;-77
2022/04/18 06:04:18;;;;;;;29.87;27.67;;;4.90;99.90;;;;;;4971388;28;20052;-76
2022/04/18 06:06:53;;;;;;;30.50;28.33;;;5.10;99.90;;;;;;4954692;28;20089;-76
2022/04/18 06:09:20;;;;;;;29.63;27.52;;;5.20;99.90;;;;;;4953638;28;20104;-74
2022/04/18 06:11:47;;;;;;;30.58;28.25;;;5.30;99.90;;;;;;4953113;28;20053;-74
2022/04/18 06:14:19;;;;;;;27.92;26.05;;;5.50;99.90;;;;;;4954842;28;20081;-74
2022/04/18 06:16:47;;;;;;;27.83;26.02;;;5.60;99.90;;;;;;4953507;28;20415;-75
2022/04/18 06:19:17;;;;;;;27.98;26.10;;;5.70;99.90;;;;;;4954434;28;20057;-78
2022/04/18 06:21:44;;;;;;;28.08;26.17;;;5.90;99.90;;;;;;4967075;28;20073;-76
2022/04/18 06:24:12;;;;;;;28.02;26.25;;;5.90;99.90;;;;;;4968684;28;20165;-76
2022/04/18 06:26:57;;;;;;;;;;;6.10;99.90;;;;;;4976881;28;20144;-73
2022/04/18 06:29:24;;;;;;;27.90;26.08;;;6.20;99.90;;;;;;4969589;28;20578;-75
2022/04/18 06:31:53;;;;;;;29.20;27.10;;;6.30;99.90;;;;;;4970775;28;20054;-75
2022/04/18 06:34:21;;;;;;;28.30;26.50;;;6.50;99.90;;;;;;4953368;28;20969;-75
2022/04/18 06:36:49;;;;;;;28.20;25.95;;;6.70;99.90;;;;;;4952690;28;20053;-76
2022/04/18 06:39:37;;;;;;;26.45;24.55;;;6.80;99.90;;;;;;4974985;28;20053;-75
2022/04/18 06:42:17;;;;;;;25.63;24.10;;;7.10;99.90;;;;;;4985519;28;20555;-75
2022/04/18 06:44:51;;;;;;;26.40;24.65;;;7.60;99.90;;;;;;4970540;28;20057;-76
2022/04/18 06:47:19;;;;;;;25.25;23.80;;;8.10;99.90;;;;;;4969016;28;20042;-75
2022/04/18 06:50:15;;;;;;;24.60;23.08;;;8.80;99.90;;;;;;4984542;28;20058;-75
2022/04/18 06:53:00;;;;;;;25.80;24.35;;;9.30;99.90;;;;;;4986319;28;20058;-76
2022/04/18 06:58:54;;;;;;;25.45;23.92;;;10.00;99.90;;;;;;4977049;28;20507;-76
2022/04/18 07:01:20;;;;;;;25.95;24.35;;;10.10;99.90;;;;;;4986332;28;20659;-76
2022/04/18 07:03:48;;;;;;;25.92;24.33;;;10.10;99.90;;;;;;4978426;28;20149;-75
2022/04/18 07:06:15;;;;;;;25.27;23.98;;;10.20;99.90;;;;;;4970616;28;20608;-75
2022/04/18 07:08:45;;;;;;;26.10;24.60;;;10.30;99.90;;;;;;4953520;28;20054;-75
2022/04/18 07:11:31;;;;;;;26.80;25.30;;;10.40;99.90;;;;;;4972849;28;20061;-75
2022/04/18 07:13:58;;;;;;;27.45;26.05;;;10.70;99.90;;;;;;4971210;28;20431;-76
2022/04/18 07:16:27;;;;;;;30.83;29.25;;;11.00;99.90;;;;;;4969450;28;20146;-75
2022/04/18 07:18:54;;;;;;;31.05;29.45;;;11.10;99.90;;;;;;4970089;28;20058;-75
2022/04/18 07:21:21;;;;;;;31.90;30.20;;;11.10;99.90;;;;;;4964386;28;20461;-76
2022/04/18 07:23:48;;;;;;;30.65;29.05;;;11.50;99.90;;;;;;4951829;28;20077;-76
2022/04/18 07:26:15;;;;;;;32.50;30.90;;;11.80;99.90;;;;;;4968355;28;20530;-76
2022/04/18 07:28:42;;;;;;;33.35;31.42;;;12.10;99.90;;;;;;4982446;28;20088;-76
2022/04/18 07:31:13;;;;;;;31.45;29.85;;;12.50;99.90;;;;;;4976513;28;20062;-77
2022/04/18 07:33:41;;;;;;;32.35;30.65;;;13.00;99.90;;;;;;4959704;28;20117;-76
2022/04/18 07:36:13;;;;;;;32.22;30.58;;;12.90;99.90;;;;;;4968717;28;20049;-76
2022/04/18 07:38:49;;;;;;;32.50;30.75;;;13.00;99.90;;;;;;4954025;28;20132;-76
2022/04/18 07:41:26;;;;;;;32.58;30.90;;;12.90;99.90;;;;;;4954544;28;20038;-76
2022/04/18 07:43:56;;;;;;;32.97;31.38;;;13.00;99.90;;;;;;4968965;28;20508;-76
2022/04/18 07:46:23;;;;;;;30.85;29.15;;;13.10;99.90;;;;;;4968414;28;20129;-76
2022/04/18 07:48:52;;;;;;;28.30;26.92;;;13.50;99.90;;;;;;4969280;28;20057;-76
2022/04/18 07:51:31;;;;;;;32.55;30.88;;;13.30;99.90;;;;;;4969312;28;20129;-75
2022/04/18 07:53:59;;;;;;;33.13;31.42;;;13.40;99.90;;;;;;4956976;28;20643;-75
2022/04/18 07:56:27;;;;;;;26.73;24.85;;;13.00;99.90;;;;;;4951106;28;20054;-75
2022/04/18 07:58:54;;;;;;;31.20;29.50;;;13.30;99.90;;;;;;4969478;28;20058;-77
2022/04/18 08:01:32;;;;;;;30.00;28.38;;;13.40;99.90;;;;;;4954157;28;20667;-77
2022/04/18 08:04:00;;;;;;;29.45;27.95;;;13.90;99.90;;;;;;4969888;28;20484;-75
2022/04/18 08:06:29;;;;;;;31.33;29.63;;;13.90;99.90;;;;;;4968643;28;20104;-76
2022/04/18 08:09:06;;;;;;;33.30;31.48;;;13.90;99.90;;;;;;4954632;28;20427;-76
2022/04/18 08:11:33;;;;;;;34.33;32.47;;;13.90;99.90;;;;;;4954282;28;20420;-75
2022/04/18 08:14:00;;;;;;;32.67;30.92;;;13.80;99.90;;;;;;4970110;28;20488;-76
2022/04/18 08:16:43;;;;;;;32.83;30.83;;;13.60;99.90;;;;;;4958332;28;20039;-76
2022/04/18 08:19:39;;;;;;;34.35;32.47;;;13.90;99.90;;;;;;4950889;28;20603;-75
2022/04/18 08:22:06;;;;;;;33.65;31.98;;;14.20;99.90;;;;;;4954648;28;20054;-75
2022/04/18 08:24:43;;;;;;;33.03;31.52;;;14.20;99.90;;;;;;4954027;28;20049;-76
2022/04/18 08:27:39;;;;;;;34.17;31.92;;;14.20;99.90;;;;;;4981759;28;20064;-76
2022/04/18 08:30:11;;;;;;;32.13;30.52;;;14.00;99.90;;;;;;4979819;28;20159;-76
2022/04/18 08:32:53;;;;;;;33.40;31.73;;;14.20;99.90;;;;;;4967593;28;20141;-76
2022/04/18 08:35:20;;;;;;;33.60;31.75;;;14.30;99.90;;;;;;4951299;28;20062;-75
2022/04/18 08:37:48;;;;;;;34.13;32.33;;;14.30;99.90;;;;;;4967749;28;20156;-76
2022/04/18 08:40:18;;;;;;;34.35;32.58;;;14.40;99.90;;;;;;4968310;28;20160;-75
2022/04/18 08:42:52;;;;;;;34.13;32.22;;;14.80;99.90;;;;;;4952472;28;20516;-75
2022/04/18 08:45:23;;;;;;;34.60;32.83;;;14.90;99.90;;;;;;4952782;28;20157;-76
2022/04/18 08:53:31;;;;;;;31.67;30.08;;;15.50;99.90;;;;;;4949767;28;20121;-77
2022/04/18 08:56:00;;;;;;;33.47;31.53;;;15.70;99.90;;;;;;4959624;28;20038;-76
2022/04/18 08:58:32;;;;;;;33.90;32.05;;;15.90;99.90;;;;;;4979587;28;20039;-76
2022/04/18 09:01:03;;;;;;;33.45;31.77;;;15.60;99.90;;;;;;4977641;28;20516;-76
2022/04/18 09:03:45;;;;;;;34.65;32.58;;;15.70;99.90;;;;;;4971626;28;20080;-76
2022/04/18 09:06:13;;;;;;;31.45;29.55;;;15.50;99.40;;;;;;4967547;28;20078;-75
2022/04/18 09:08:51;;;;;;;34.50;32.67;;;15.00;99.90;;;;;;4969475;28;20112;-76
2022/04/18 09:11:31;;;;;;;33.83;32.05;;;15.50;99.90;;;;;;4953491;28;20562;-76
2022/04/18 09:14:12;;;;;;;34.00;32.03;;;15.60;99.80;;;;;;4969428;28;20054;-76
2022/04/18 09:16:42;;;;;;;33.65;32.05;;;15.60;99.90;;;;;;4966446;28;20112;-76
2022/04/18 09:19:16;;;;;;;31.23;29.63;;;15.50;98.40;;;;;;4966334;28;20420;-76
2022/04/18 09:21:59;;;;;;;31.52;29.92;;;15.50;99.90;;;;;;4967123;28;20046;-76
2022/04/18 09:24:35;;;;;;;33.13;31.42;;;15.60;99.10;;;;;;4968881;28;20038;-75
2022/04/18 09:27:18;;;;;;;34.38;32.55;;;15.50;98.90;;;;;;4966616;28;20050;-76
2022/04/18 09:30:12;;;;;;;35.78;33.97;;;15.10;97.30;;;;;;4983947;28;20153;-75
2022/04/18 09:32:57;;;;;;;33.30;31.60;;;15.30;98.20;;;;;;4889439;29;20303;-72
2022/04/18 09:35:33;;;;;;;34.95;33.10;;;15.60;98.00;;;;;;4890227;29;20051;-71
2022/04/18 09:38:08;;;;;;;34.40;32.70;;;15.40;96.50;;;;;;4891274;29;20047;-70
2022/04/18 09:40:55;;;;;;;32.25;30.65;;;15.00;96.20;;;;;;4894684;29;20182;-72
2022/04/18 09:43:40;;;;;;;32.15;30.52;;;14.90;96.80;;;;;;4893441;29;20157;-72
2022/04/18 09:46:09;;;;;;;32.92;31.33;;;15.50;95.40;;;;;;4887868;29;20131;-72
2022/04/18 09:48:43;;;;;;;32.28;30.67;;;15.70;96.30;;;;;;4874728;29;20059;-72
2022/04/18 09:51:12;;;;;;;34.78;32.97;;;15.50;96.70;;;;;;4903387;29;20135;-71
2022/04/18 09:53:47;;;;;;;33.53;31.75;;;15.50;96.20;;;;;;4902588;29;20585;-71
2022/04/18 09:56:19;;;;;;;34.33;32.53;;;15.70;95.40;;;;;;4909841;29;20363;-72
2022/04/18 09:58:46;;;;;;;33.95;31.95;;;15.40;94.90;;;;;;4901417;29;20288;-71
2022/04/18 10:01:35;;;;;;;33.70;32.00;;;15.60;96.70;;;;;;4889376;29;20044;-72
2022/04/18 10:04:05;;;;;;;35.10;33.10;;;15.90;94.00;;;;;;4893302;29;20555;-70
2022/04/18 10:06:32;;;;;;;35.55;33.63;;;15.10;95.10;;;;;;4893857;29;20517;-72
2022/04/18 10:08:59;;;;;;;34.25;32.55;;;15.00;94.30;;;;;;4894458;29;20115;-70
2022/04/18 10:11:26;;;;;;;32.22;30.63;;;14.80;94.50;;;;;;4891815;29;20213;-70
2022/04/18 10:13:53;;;;;;;34.10;32.30;;;14.70;95.70;;;;;;4891276;29;20075;-71
2022/04/18 10:16:21;;;;;;;33.85;31.95;;;14.60;95.80;;;;;;4906830;29;20056;-71
2022/04/18 10:18:54;;;;;;;33.35;31.75;;;14.80;95.10;;;;;;4902339;29;20630;-69
2022/04/18 10:21:31;;;;;;;34.35;32.72;;;15.10;95.10;;;;;;4891795;29;20052;-71
2022/04/18 10:24:04;;;;;;;34.78;32.95;;;15.60;95.70;;;;;;4892287;29;20040;-72
2022/04/18 10:27:13;;;;;;;32.40;30.63;;;16.00;94.30;;;;;;4907675;29;20544;-73
2022/04/18 10:29:45;;;;;;;33.42;31.73;;;16.40;92.40;;;;;;4900418;29;20067;-72
2022/04/18 10:32:18;;;;;;;34.78;32.78;;;15.80;93.80;;;;;;4914016;29;20063;-72
2022/04/18 10:34:49;;;;;;;33.63;31.85;;;15.20;93.30;;;;;;4915615;29;20119;-73
2022/04/18 10:37:20;;;;;;;34.33;32.50;;;15.70;93.30;;;;;;4910880;29;20044;-71
2022/04/18 10:39:56;;;;;;;33.03;31.13;;;15.90;93.70;;;;;;4908798;29;20449;-70
2022/04/18 10:42:33;;;;;;;33.55;31.88;;;15.90;92.20;;;;;;4914629;29;20297;-73
2022/04/18 10:45:01;;;;;;;32.97;31.17;;;16.00;94.10;;;;;;4895011;29;20223;-73
2022/04/18 10:47:56;;;;;;;34.08;32.17;;;16.20;91.10;;;;;;4914101;29;20137;-71
2022/04/18 10:50:43;;;;;;;34.58;32.88;;;15.90;91.70;;;;;;4913096;29;20051;-71
2022/04/18 10:53:15;;;;;;;35.75;33.85;;;15.40;92.60;;;;;;4898644;29;20141;-70
2022/04/18 10:55:54;;;;;;;35.70;34.00;;;15.40;93.00;;;;;;4900319;29;20056;-70
2022/04/18 10:58:26;;;;;;;35.72;33.97;;;14.90;91.90;;;;;;4915510;29;20106;-71
2022/04/18 11:00:58;;;;;;;35.53;33.78;;;15.00;91.90;;;;;;4914664;29;20073;-72
2022/04/18 11:03:40;;;;;;;34.10;32.50;;;15.80;92.90;;;;;;4901664;29;20058;-71
2022/04/18 11:06:32;;;;;;;34.80;32.58;;;16.40;91.50;;;;;;4898591;29;20439;-72
2022/04/18 11:09:03;;;;;;;32.80;31.20;;;16.30;91.30;;;;;;4911878;29;20568;-72
2022/04/18 11:11:35;;;;;;;33.63;31.92;;;16.10;91.60;;;;;;4899999;29;20516;-72
2022/04/18 11:14:17;;;;;;;34.35;32.65;;;16.30;90.80;;;;;;4900703;29;20047;-71
2022/04/18 11:16:44;;;;;;;31.27;29.67;;;16.50;91.30;;;;;;4914728;29;20063;-72
2022/04/18 11:19:14;;;;;;;32.38;30.55;;;16.70;91.00;;;;;;4894717;29;20084;-72
2022/04/18 11:21:56;;;;;;;33.63;31.90;;;17.00;91.40;;;;;;4895981;29;20058;-72
2022/04/18 11:24:39;;;;;;;35.08;33.38;;;17.20;90.80;;;;;;4900698;29;20225;-72
2022/04/18 11:27:10;;;;;;;34.25;32.55;;;16.90;86.20;;;;;;4900448;29;20055;-72
2022/04/18 11:29:39;;;;;;;35.83;33.85;;;16.60;84.30;;;;;;4925007;29;20639;-71
2022/04/18 11:32:07;;;;;;;36.08;34.28;;;16.30;90.00;;;;;;4905233;29;20102;-72
2022/04/18 11:34:35;;;;;;;35.80;33.90;;;16.50;90.40;;;;;;4916367;29;20063;-72
2022/04/18 11:37:08;;;;;;;35.53;33.53;;;16.80;85.70;;;;;;4899830;29;20147;-72
2022/04/18 11:39:46;;;;;;;36.38;34.58;;;17.00;85.40;;;;;;4898967;29;20347;-72
2022/04/18 11:42:15;;;;;;;38.03;36.03;;;16.70;86.20;;;;;;4913580;29;20416;-72
2022/04/18 11:44:43;;;;;;;37.58;35.72;;;16.40;84.80;;;;;;4900144;29;20054;-71
2022/04/18 11:47:12;;;;;;;38.53;36.67;;;16.50;85.60;;;;;;4914139;29;20040;-72
2022/04/18 11:49:41;;;;;;;36.83;34.83;;;16.70;87.60;;;;;;4915095;29;20062;-72
2022/04/18 11:52:21;;;;;;;35.85;34.05;;;16.80;88.40;;;;;;4897366;29;20552;-71
2022/04/18 11:55:05;;;;;;;37.83;36.03;;;16.80;76.40;;;;;;4898910;29;20062;-72
2022/04/18 11:57:36;;;;;;;36.05;34.35;;;16.90;79.30;;;;;;4908872;29;20048;-72
2022/04/18 12:00:09;;;;;;;35.22;33.42;;;17.30;83.00;;;;;;4915607;29;20044;-72
2022/04/18 12:08:18;;;;;;;36.50;34.65;;;17.70;83.70;;;;;;4916369;29;20178;-73
2022/04/18 12:10:45;;;;;;;37.92;36.20;;;17.70;85.10;;;;;;4910175;29;20476;-73
2022/04/18 12:13:14;;;;;;;37.00;35.15;;;17.60;85.90;;;;;;4913646;29;20103;-71
2022/04/18 12:15:42;;;;;;;36.22;34.53;;;17.00;86.70;;;;;;4915070;29;20051;-71
2022/04/18 12:18:12;;;;;;;35.80;34.10;;;16.70;88.40;;;;;;4894734;29;20114;-71
2022/04/18 12:20:41;;;;;;;36.05;34.35;;;17.10;85.50;;;;;;4914300;29;20048;-71
2022/04/18 12:23:13;;;;;;;35.75;33.95;;;17.30;87.20;;;;;;4904027;29;20058;-72
2022/04/18 12:25:47;;;;;;;36.47;34.75;;;17.00;87.20;;;;;;4898752;29;20056;-71
2022/04/18 12:28:15;;;;;;;36.75;34.95;;;17.20;86.30;;;;;;4908216;29;20051;-72
2022/04/18 12:30:42;;;;;;;35.92;34.17;;;17.60;87.30;;;;;;4923373;29;20532;-72
2022/04/18 12:33:11;;;;;;;35.97;34.28;;;17.90;84.00;;;;;;4915531;29;20040;-72
2022/04/18 12:35:43;;;;;;;36.90;34.92;;;18.10;83.80;;;;;;4915603;29;20059;-71
2022/04/18 12:38:12;;;;;;;36.50;34.70;;;18.50;83.60;;;;;;4899043;29;20056;-73
2022/04/18 12:40:41;;;;;;;67.47;61.78;;;18.40;82.50;;;;;;4900381;29;20684;-71
2022/04/18 12:43:09;;;;;;;36.45;34.75;;;18.20;86.20;;;;;;4915663;29;20126;-71
2022/04/18 12:45:46;;;;;;;35.88;34.08;;;17.90;86.10;;;;;;4914936;29;20536;-72
2022/04/18 12:48:13;;;;;;;36.58;34.88;;;17.70;82.00;;;;;;4900150;29;20076;-71
2022/04/18 12:50:40;;;;;;;35.55;33.85;;;16.90;80.60;;;;;;4915405;29;20074;-71
2022/04/18 12:53:07;;;;;;;36.13;34.53;;;16.90;84.00;;;;;;4912819;29;20043;-70
2022/04/18 12:58:13;;;;;;;38.60;36.60;;;17.00;80.90;;;;;;4960693;28;20055;-73
2022/04/18 13:00:40;;;;;;;35.50;33.78;;;16.40;81.70;;;;;;4961837;28;20073;-74
2022/04/18 13:03:08;;;;;;;36.78;35.08;;;16.70;83.40;;;;;;4977618;28;20149;-74
2022/04/18 13:05:42;;;;;;;35.70;34.13;;;17.50;81.60;;;;;;4964576;28;20095;-73
2022/04/18 13:08:10;;;;;;;35.47;33.88;;;18.10;79.10;;;;;;4970448;28;20124;-73
2022/04/18 13:10:37;;;;;;;34.38;32.88;;;18.10;80.80;;;;;;4961186;28;20077;-74
2022/04/18 13:13:14;;;;;;;35.25;33.50;;;18.50;82.90;;;;;;4960542;28;20046;-74
2022/04/18 13:15:43;;;;;;;36.33;34.63;;;17.60;78.60;;;;;;4957297;28;20050;-73
2022/04/18 13:18:12;;;;;;;35.65;34.03;;;17.50;82.20;;;;;;4961933;28;20054;-74
2022/04/18 13:20:40;;;;;;;38.08;36.28;;;17.90;81.60;;;;;;4962168;28;20580;-74
2022/04/18 13:23:07;;;;;;;38.95;37.10;;;17.60;78.20;;;;;;4961469;28;20054;-74